sensor_id;sensor_type;location;lat;lon;timestamp;temperature;humidity
14985;DHT22;7588;62.368;25.902;2023-04-03T00:01:36;-6.70;99.90
14985;DHT22;7588;62.368;25.902;2023-04-03T00:04:04;-6.70;99.90
14985;DHT22;7588;62.368;25.902;2023-04-03T00:06:30;-6.70;99.90
14985;DHT22;7588;62.368;25.902;2023-04-03T00:08:56;-6.70;99.90
14985;DHT22;7588;62.368;25.902;2023-04-03T00:11:22;-6.80;99.90
14985;DHT22;7588;62.368;25.902;2023-04-03T00:13:47;-6.90;99.90
14985;DHT22;7588;62.368;25.902;2023-04-03T00:16:13;-6.90;99.90
14985;DHT22;7588;62.368;25.902;2023-04-03T00:18:40;-6.90;99.90
14985;DHT22;7588;62.368;25.902;2023-04-03T00:21:06;-7.00;99.90
14985;DHT22;7588;62.368;25.902;2023-04-03T00:23:33;-7.00;99.90
14985;DHT22;7588;62.368;25.902;2023-04-03T00:25:59;-7.00;99.90
14985;DHT22;7588;62.368;25.902;2023-04-03T00:28:24;-7.10;99.90
14985;DHT22;7588;62.368;25.902;2023-04-03T00:30:51;-7.10;99.90
14985;DHT22;7588;62.368;25.902;2023-04-03T00:33:17;-7.10;99.90
14985;DHT22;7588;62.368;25.902;2023-04-03T00:35:43;-7.20;99.90
14985;DHT22;7588;62.368;25.902;2023-04-03T00:38:09;-7.20;99.90
14985;DHT22;7588;62.368;25.902;2023-04-03T00:40:37;-7.30;99.90
14985;DHT22;7588;62.368;25.902;2023-04-03T00:43:14;-7.40;99.90
14985;DHT22;7588;62.368;25.902;2023-04-03T00:45:46;-7.40;99.90
14985;DHT22;7588;62.368;25.902;2023-04-03T00:50:59;-7.40;99.90
14985;DHT22;7588;62.368;25.902;2023-04-03T00:53:30;-7.30;99.90
14985;DHT22;7588;62.368;25.902;2023-04-03T00:55:56;-7.20;99.90
14985;DHT22;7588;62.368;25.902;2023-04-03T00:58:40;-7.30;99.90
14985;DHT22;7588;62.368;25.902;2023-04-03T01:01:09;-7.30;99.90
14985;DHT22;7588;62.368;25.902;2023-04-03T01:03:37;-7.30;99.90
14985;DHT22;7588;62.368;25.902;2023-04-03T01:06:03;-7.30;99.90
14985;DHT22;7588;62.368;25.902;2023-04-03T01:08:29;-7.40;99.90
14985;DHT22;7588;62.368;25.902;2023-04-03T01:10:55;-7.30;99.90
14985;DHT22;7588;62.368;25.902;2023-04-03T01:13:27;-7.50;99.90
14985;DHT22;7588;62.368;25.902;2023-04-03T01:15:54;-7.50;99.90
14985;DHT22;7588;62.368;25.902;2023-04-03T01:18:21;-7.50;99.90
14985;DHT22;7588;62.368;25.902;2023-04-03T01:21:13;-7.50;99.90
14985;DHT22;7588;62.368;25.902;2023-04-03T01:26:48;-7.50;99.90
14985;DHT22;7588;62.368;25.902;2023-04-03T01:29:15;-7.40;99.90
14985;DHT22;7588;62.368;25.902;2023-04-03T01:31:56;-7.40;99.90
14985;DHT22;7588;62.368;25.902;2023-04-03T01:34:23;-7.60;99.90
14985;DHT22;7588;62.368;25.902;2023-04-03T01:36:49;-7.70;99.90
14985;DHT22;7588;62.368;25.902;2023-04-03T01:39:14;-7.70;99.90
14985;DHT22;7588;62.368;25.902;2023-04-03T01:41:40;-7.80;99.90
14985;DHT22;7588;62.368;25.902;2023-04-03T01:44:06;-7.80;99.90
14985;DHT22;7588;62.368;25.902;2023-04-03T01:46:32;-7.90;99.90
14985;DHT22;7588;62.368;25.902;2023-04-03T01:48:57;-7.90;99.90
14985;DHT22;7588;62.368;25.902;2023-04-03T01:51:23;-7.90;99.90
14985;DHT22;7588;62.368;25.902;2023-04-03T01:53:49;-7.90;99.90
14985;DHT22;7588;62.368;25.902;2023-04-03T01:56:15;-7.90;99.90
14985;DHT22;7588;62.368;25.902;2023-04-03T01:58:41;-7.80;99.90
14985;DHT22;7588;62.368;25.902;2023-04-03T02:01:06;-7.80;99.90
14985;DHT22;7588;62.368;25.902;2023-04-03T02:03:32;-7.80;99.90
14985;DHT22;7588;62.368;25.902;2023-04-03T02:05:58;-7.80;99.90
14985;DHT22;7588;62.368;25.902;2023-04-03T02:08:24;-7.90;99.90
14985;DHT22;7588;62.368;25.902;2023-04-03T02:10:50;-7.90;99.90
14985;DHT22;7588;62.368;25.902;2023-04-03T02:13:17;-7.80;99.90
14985;DHT22;7588;62.368;25.902;2023-04-03T02:15:43;-7.80;99.90
14985;DHT22;7588;62.368;25.902;2023-04-03T02:18:09;-7.80;99.90
14985;DHT22;7588;62.368;25.902;2023-04-03T02:20:35;-7.80;99.90
14985;DHT22;7588;62.368;25.902;2023-04-03T02:23:00;-7.80;99.90
14985;DHT22;7588;62.368;25.902;2023-04-03T02:25:27;-7.90;99.90
14985;DHT22;7588;62.368;25.902;2023-04-03T02:27:53;-8.00;99.90
14985;DHT22;7588;62.368;25.902;2023-04-03T02:30:19;-8.00;99.90
14985;DHT22;7588;62.368;25.902;2023-04-03T02:32:45;-8.10;99.90
14985;DHT22;7588;62.368;25.902;2023-04-03T02:35:12;-8.20;99.90
14985;DHT22;7588;62.368;25.902;2023-04-03T02:37:37;-8.20;99.90
14985;DHT22;7588;62.368;25.902;2023-04-03T02:40:04;-8.30;99.90
14985;DHT22;7588;62.368;25.902;2023-04-03T02:42:30;-8.30;99.90
14985;DHT22;7588;62.368;25.902;2023-04-03T02:44:56;-8.20;99.90
14985;DHT22;7588;62.368;25.902;2023-04-03T02:47:22;-8.20;99.90
14985;DHT22;7588;62.368;25.902;2023-04-03T02:49:47;-8.30;99.90
14985;DHT22;7588;62.368;25.902;2023-04-03T02:52:14;-8.30;99.90
14985;DHT22;7588;62.368;25.902;2023-04-03T02:54:40;-8.40;99.90
14985;DHT22;7588;62.368;25.902;2023-04-03T02:57:06;-8.40;99.90
14985;DHT22;7588;62.368;25.902;2023-04-03T02:59:34;-8.50;99.90
14985;DHT22;7588;62.368;25.902;2023-04-03T03:02:00;-8.60;99.90
14985;DHT22;7588;62.368;25.902;2023-04-03T03:04:26;-8.60;99.90
14985;DHT22;7588;62.368;25.902;2023-04-03T03:06:51;-8.70;99.90
14985;DHT22;7588;62.368;25.902;2023-04-03T03:09:18;-8.70;99.90
14985;DHT22;7588;62.368;25.902;2023-04-03T03:11:43;-8.80;99.90
14985;DHT22;7588;62.368;25.902;2023-04-03T03:14:09;-8.80;99.90
14985;DHT22;7588;62.368;25.902;2023-04-03T03:16:35;-8.80;99.90
14985;DHT22;7588;62.368;25.902;2023-04-03T03:19:01;-8.90;99.90
14985;DHT22;7588;62.368;25.902;2023-04-03T03:21:27;-8.90;99.90
14985;DHT22;7588;62.368;25.902;2023-04-03T03:23:52;-8.90;99.90
14985;DHT22;7588;62.368;25.902;2023-04-03T03:26:18;-8.90;99.90
14985;DHT22;7588;62.368;25.902;2023-04-03T03:28:44;-8.90;99.90
14985;DHT22;7588;62.368;25.902;2023-04-03T03:31:10;-8.90;99.90
14985;DHT22;7588;62.368;25.902;2023-04-03T03:33:36;-8.90;99.90
14985;DHT22;7588;62.368;25.902;2023-04-03T03:36:02;-8.90;99.90
14985;DHT22;7588;62.368;25.902;2023-04-03T03:38:27;-8.90;99.90
14985;DHT22;7588;62.368;25.902;2023-04-03T03:40:53;-8.90;99.90
14985;DHT22;7588;62.368;25.902;2023-04-03T03:43:19;-9.00;99.90
14985;DHT22;7588;62.368;25.902;2023-04-03T03:45:50;-9.00;99.90
14985;DHT22;7588;62.368;25.902;2023-04-03T03:48:16;-9.10;99.90
14985;DHT22;7588;62.368;25.902;2023-04-03T03:50:42;-9.10;99.90
14985;DHT22;7588;62.368;25.902;2023-04-03T03:53:07;-9.10;99.90
14985;DHT22;7588;62.368;25.902;2023-04-03T03:55:33;-9.00;99.90
14985;DHT22;7588;62.368;25.902;2023-04-03T03:57:59;-8.90;99.90
14985;DHT22;7588;62.368;25.902;2023-04-03T04:00:26;-8.80;99.90
14985;DHT22;7588;62.368;25.902;2023-04-03T04:02:52;-8.80;99.90
14985;DHT22;7588;62.368;25.902;2023-04-03T04:05:17;-8.80;99.90
14985;DHT22;7588;62.368;25.902;2023-04-03T04:07:43;-8.80;99.90
14985;DHT22;7588;62.368;25.902;2023-04-03T04:10:09;-8.80;99.90
14985;DHT22;7588;62.368;25.902;2023-04-03T04:12:35;-8.80;99.90
14985;DHT22;7588;62.368;25.902;2023-04-03T04:15:01;-8.80;99.90
14985;DHT22;7588;62.368;25.902;2023-04-03T04:17:27;-8.80;99.90
14985;DHT22;7588;62.368;25.902;2023-04-03T04:19:53;-8.70;99.90
14985;DHT22;7588;62.368;25.902;2023-04-03T04:22:19;-8.60;99.90
14985;DHT22;7588;62.368;25.902;2023-04-03T04:24:44;-8.60;99.90
14985;DHT22;7588;62.368;25.902;2023-04-03T04:27:10;-8.50;99.90
14985;DHT22;7588;62.368;25.902;2023-04-03T04:29:36;-8.50;99.90
14985;DHT22;7588;62.368;25.902;2023-04-03T04:32:05;-8.40;99.90
14985;DHT22;7588;62.368;25.902;2023-04-03T04:34:31;-8.30;99.90
14985;DHT22;7588;62.368;25.902;2023-04-03T04:36:57;-8.30;99.90
14985;DHT22;7588;62.368;25.902;2023-04-03T04:39:22;-8.20;99.90
14985;DHT22;7588;62.368;25.902;2023-04-03T04:41:48;-8.00;99.90
14985;DHT22;7588;62.368;25.902;2023-04-03T04:44:14;-7.90;99.90
14985;DHT22;7588;62.368;25.902;2023-04-03T04:46:40;-7.80;99.90
14985;DHT22;7588;62.368;25.902;2023-04-03T04:49:05;-7.70;99.90
14985;DHT22;7588;62.368;25.902;2023-04-03T04:51:31;-7.50;99.90
14985;DHT22;7588;62.368;25.902;2023-04-03T04:53:57;-7.30;99.90
14985;DHT22;7588;62.368;25.902;2023-04-03T04:56:22;-7.20;99.90
14985;DHT22;7588;62.368;25.902;2023-04-03T04:58:49;-7.10;99.90
14985;DHT22;7588;62.368;25.902;2023-04-03T05:01:14;-6.90;99.90
14985;DHT22;7588;62.368;25.902;2023-04-03T05:03:40;-6.80;99.90
14985;DHT22;7588;62.368;25.902;2023-04-03T05:06:06;-6.80;99.90
14985;DHT22;7588;62.368;25.902;2023-04-03T05:08:32;-6.70;99.90
14985;DHT22;7588;62.368;25.902;2023-04-03T05:10:58;-6.60;99.90
14985;DHT22;7588;62.368;25.902;2023-04-03T05:13:24;-6.50;99.90
14985;DHT22;7588;62.368;25.902;2023-04-03T05:15:49;-6.50;99.90
14985;DHT22;7588;62.368;25.902;2023-04-03T05:18:15;-6.40;99.90
14985;DHT22;7588;62.368;25.902;2023-04-03T05:20:41;-6.30;99.90
14985;DHT22;7588;62.368;25.902;2023-04-03T05:23:09;-6.20;99.90
14985;DHT22;7588;62.368;25.902;2023-04-03T05:25:37;-6.10;99.90
14985;DHT22;7588;62.368;25.902;2023-04-03T05:28:03;-6.00;99.90
14985;DHT22;7588;62.368;25.902;2023-04-03T05:30:29;-5.80;99.90
14985;DHT22;7588;62.368;25.902;2023-04-03T05:32:54;-5.70;99.90
14985;DHT22;7588;62.368;25.902;2023-04-03T05:35:21;-5.70;99.90
14985;DHT22;7588;62.368;25.902;2023-04-03T05:37:46;-5.60;99.90
14985;DHT22;7588;62.368;25.902;2023-04-03T05:40:12;-5.60;99.90
14985;DHT22;7588;62.368;25.902;2023-04-03T05:42:38;-5.50;99.90
14985;DHT22;7588;62.368;25.902;2023-04-03T05:45:04;-5.40;99.90
14985;DHT22;7588;62.368;25.902;2023-04-03T05:47:30;-5.40;99.90
14985;DHT22;7588;62.368;25.902;2023-04-03T05:49:56;-5.40;99.90
14985;DHT22;7588;62.368;25.902;2023-04-03T05:52:26;-5.30;99.90
14985;DHT22;7588;62.368;25.902;2023-04-03T05:54:52;-5.20;99.90
14985;DHT22;7588;62.368;25.902;2023-04-03T05:57:18;-5.10;99.90
14985;DHT22;7588;62.368;25.902;2023-04-03T05:59:46;-5.10;99.90
14985;DHT22;7588;62.368;25.902;2023-04-03T06:02:17;-5.10;99.90
14985;DHT22;7588;62.368;25.902;2023-04-03T06:04:43;-5.00;99.90
14985;DHT22;7588;62.368;25.902;2023-04-03T06:07:14;-4.90;99.90
14985;DHT22;7588;62.368;25.902;2023-04-03T06:09:41;-4.90;99.90
14985;DHT22;7588;62.368;25.902;2023-04-03T06:12:08;-4.70;99.90
14985;DHT22;7588;62.368;25.902;2023-04-03T06:14:34;-4.60;99.90
14985;DHT22;7588;62.368;25.902;2023-04-03T06:16:59;-4.60;99.90
14985;DHT22;7588;62.368;25.902;2023-04-03T06:19:25;-4.50;99.90
14985;DHT22;7588;62.368;25.902;2023-04-03T06:21:51;-4.40;99.90
14985;DHT22;7588;62.368;25.902;2023-04-03T06:24:18;-4.30;99.90
14985;DHT22;7588;62.368;25.902;2023-04-03T06:26:45;-4.20;99.90
14985;DHT22;7588;62.368;25.902;2023-04-03T06:29:11;-4.10;99.90
14985;DHT22;7588;62.368;25.902;2023-04-03T06:31:37;-4.00;99.90
14985;DHT22;7588;62.368;25.902;2023-04-03T06:34:03;-3.90;99.90
14985;DHT22;7588;62.368;25.902;2023-04-03T06:36:29;-3.80;99.90
14985;DHT22;7588;62.368;25.902;2023-04-03T06:38:55;-3.80;99.90
14985;DHT22;7588;62.368;25.902;2023-04-03T06:41:21;-3.70;99.90
14985;DHT22;7588;62.368;25.902;2023-04-03T06:43:47;-3.60;99.90
14985;DHT22;7588;62.368;25.902;2023-04-03T06:46:17;-3.50;99.90
14985;DHT22;7588;62.368;25.902;2023-04-03T06:48:44;-3.40;99.90
14985;DHT22;7588;62.368;25.902;2023-04-03T06:51:24;-3.30;99.90
14985;DHT22;7588;62.368;25.902;2023-04-03T06:53:53;-3.20;99.90
14985;DHT22;7588;62.368;25.902;2023-04-03T06:56:19;-3.10;99.90
14985;DHT22;7588;62.368;25.902;2023-04-03T06:58:45;-3.00;99.90
14985;DHT22;7588;62.368;25.902;2023-04-03T07:01:13;-2.80;99.90
14985;DHT22;7588;62.368;25.902;2023-04-03T07:03:40;-2.60;99.90
14985;DHT22;7588;62.368;25.902;2023-04-03T07:06:07;-2.30;99.90
14985;DHT22;7588;62.368;25.902;2023-04-03T07:08:34;-1.30;98.80
14985;DHT22;7588;62.368;25.902;2023-04-03T07:11:00;-0.30;96.60
14985;DHT22;7588;62.368;25.902;2023-04-03T07:13:26;0.20;93.60
14985;DHT22;7588;62.368;25.902;2023-04-03T07:15:52;1.00;92.40
14985;DHT22;7588;62.368;25.902;2023-04-03T07:18:19;1.60;89.70
14985;DHT22;7588;62.368;25.902;2023-04-03T07:20:44;1.80;88.50
14985;DHT22;7588;62.368;25.902;2023-04-03T07:23:10;2.00;86.10
14985;DHT22;7588;62.368;25.902;2023-04-03T07:25:37;2.40;84.20
14985;DHT22;7588;62.368;25.902;2023-04-03T07:28:03;3.00;82.30
14985;DHT22;7588;62.368;25.902;2023-04-03T07:30:29;3.00;80.20
14985;DHT22;7588;62.368;25.902;2023-04-03T07:32:55;3.10;79.80
14985;DHT22;7588;62.368;25.902;2023-04-03T07:35:20;3.20;78.20
14985;DHT22;7588;62.368;25.902;2023-04-03T07:37:46;3.30;79.40
14985;DHT22;7588;62.368;25.902;2023-04-03T07:40:12;3.50;75.40
14985;DHT22;7588;62.368;25.902;2023-04-03T07:42:38;3.40;77.20
14985;DHT22;7588;62.368;25.902;2023-04-03T07:45:04;3.50;75.00
14985;DHT22;7588;62.368;25.902;2023-04-03T07:47:30;3.70;76.10
14985;DHT22;7588;62.368;25.902;2023-04-03T07:49:57;3.90;77.40
14985;DHT22;7588;62.368;25.902;2023-04-03T07:52:23;4.30;71.90
14985;DHT22;7588;62.368;25.902;2023-04-03T07:54:49;4.10;69.30
14985;DHT22;7588;62.368;25.902;2023-04-03T07:57:14;4.00;73.60
14985;DHT22;7588;62.368;25.902;2023-04-03T07:59:40;4.20;74.10
14985;DHT22;7588;62.368;25.902;2023-04-03T08:02:11;4.50;70.80
14985;DHT22;7588;62.368;25.902;2023-04-03T08:04:37;4.60;71.60
14985;DHT22;7588;62.368;25.902;2023-04-03T08:07:03;4.60;72.70
14985;DHT22;7588;62.368;25.902;2023-04-03T08:09:28;4.80;70.40
14985;DHT22;7588;62.368;25.902;2023-04-03T08:11:54;4.70;70.90
14985;DHT22;7588;62.368;25.902;2023-04-03T08:14:20;5.00;70.90
14985;DHT22;7588;62.368;25.902;2023-04-03T08:16:47;4.90;69.70
14985;DHT22;7588;62.368;25.902;2023-04-03T08:19:13;5.10;71.50
14985;DHT22;7588;62.368;25.902;2023-04-03T08:21:41;5.10;72.50
14985;DHT22;7588;62.368;25.902;2023-04-03T08:24:08;5.20;69.70
14985;DHT22;7588;62.368;25.902;2023-04-03T08:26:34;5.40;66.20
14985;DHT22;7588;62.368;25.902;2023-04-03T08:29:00;5.50;65.80
14985;DHT22;7588;62.368;25.902;2023-04-03T08:31:26;5.70;65.40
14985;DHT22;7588;62.368;25.902;2023-04-03T08:33:52;5.70;63.90
14985;DHT22;7588;62.368;25.902;2023-04-03T08:36:30;5.80;65.40
14985;DHT22;7588;62.368;25.902;2023-04-03T08:38:56;6.00;67.90
14985;DHT22;7588;62.368;25.902;2023-04-03T08:41:33;5.70;66.00
14985;DHT22;7588;62.368;25.902;2023-04-03T08:49:31;5.40;66.10
14985;DHT22;7588;62.368;25.902;2023-04-03T08:51:59;5.30;66.60
14985;DHT22;7588;62.368;25.902;2023-04-03T08:54:48;5.20;63.20
14985;DHT22;7588;62.368;25.902;2023-04-03T08:57:15;5.40;64.60
14985;DHT22;7588;62.368;25.902;2023-04-03T08:59:41;5.50;66.70
14985;DHT22;7588;62.368;25.902;2023-04-03T09:02:27;5.80;65.50
14985;DHT22;7588;62.368;25.902;2023-04-03T09:04:54;6.30;64.60
14985;DHT22;7588;62.368;25.902;2023-04-03T09:07:44;6.40;62.50
14985;DHT22;7588;62.368;25.902;2023-04-03T09:10:13;6.20;58.90
14985;DHT22;7588;62.368;25.902;2023-04-03T09:12:43;6.20;64.20
14985;DHT22;7588;62.368;25.902;2023-04-03T09:15:15;6.30;65.30
14985;DHT22;7588;62.368;25.902;2023-04-03T09:17:57;6.40;60.60
14985;DHT22;7588;62.368;25.902;2023-04-03T09:20:27;6.60;65.60
14985;DHT22;7588;62.368;25.902;2023-04-03T09:22:57;7.10;63.80
14985;DHT22;7588;62.368;25.902;2023-04-03T09:25:27;7.10;59.00
14985;DHT22;7588;62.368;25.902;2023-04-03T09:27:53;6.70;58.90
14985;DHT22;7588;62.368;25.902;2023-04-03T09:30:24;6.40;58.80
14985;DHT22;7588;62.368;25.902;2023-04-03T09:32:52;6.50;59.90
14985;DHT22;7588;62.368;25.902;2023-04-03T09:35:25;6.30;60.60
14985;DHT22;7588;62.368;25.902;2023-04-03T09:37:53;6.20;60.30
14985;DHT22;7588;62.368;25.902;2023-04-03T09:42:52;6.00;58.70
14985;DHT22;7588;62.368;25.902;2023-04-03T09:45:30;6.30;61.40
14985;DHT22;7588;62.368;25.902;2023-04-03T09:48:13;6.40;62.20
14985;DHT22;7588;62.368;25.902;2023-04-03T09:55:56;6.30;61.70
14985;DHT22;7588;62.368;25.902;2023-04-03T09:58:32;6.60;58.60
14985;DHT22;7588;62.368;25.902;2023-04-03T10:01:01;7.00;59.40
14985;DHT22;7588;62.368;25.902;2023-04-03T10:03:36;6.80;60.60
14985;DHT22;7588;62.368;25.902;2023-04-03T10:06:04;6.70;58.80
14985;DHT22;7588;62.368;25.902;2023-04-03T10:08:34;6.70;57.90
14985;DHT22;7588;62.368;25.902;2023-04-03T10:11:07;6.90;56.10
14985;DHT22;7588;62.368;25.902;2023-04-03T10:13:35;7.10;60.50
14985;DHT22;7588;62.368;25.902;2023-04-03T10:16:13;7.40;58.10
14985;DHT22;7588;62.368;25.902;2023-04-03T10:18:44;7.60;57.10
14985;DHT22;7588;62.368;25.902;2023-04-03T10:23:54;7.40;56.40
14985;DHT22;7588;62.368;25.902;2023-04-03T10:26:32;7.20;58.00
14985;DHT22;7588;62.368;25.902;2023-04-03T10:34:46;7.30;54.80
14985;DHT22;7588;62.368;25.902;2023-04-03T10:40:05;7.50;54.80
14985;DHT22;7588;62.368;25.902;2023-04-03T10:42:56;7.50;54.00
14985;DHT22;7588;62.368;25.902;2023-04-03T10:45:42;7.60;51.30
14985;DHT22;7588;62.368;25.902;2023-04-03T10:56:30;7.90;52.80
14985;DHT22;7588;62.368;25.902;2023-04-03T10:59:18;7.80;52.00
14985;DHT22;7588;62.368;25.902;2023-04-03T11:01:46;7.90;54.90
14985;DHT22;7588;62.368;25.902;2023-04-03T11:04:14;8.30;53.70
14985;DHT22;7588;62.368;25.902;2023-04-03T11:09:40;8.50;50.90
14985;DHT22;7588;62.368;25.902;2023-04-03T11:12:15;8.30;50.30
14985;DHT22;7588;62.368;25.902;2023-04-03T11:14:42;8.00;51.50
14985;DHT22;7588;62.368;25.902;2023-04-03T11:17:39;8.20;51.90
14985;DHT22;7588;62.368;25.902;2023-04-03T11:25:41;7.90;53.40
14985;DHT22;7588;62.368;25.902;2023-04-03T11:28:13;8.20;49.70
14985;DHT22;7588;62.368;25.902;2023-04-03T11:36:26;8.20;50.30
14985;DHT22;7588;62.368;25.902;2023-04-03T11:38:56;8.10;51.80
14985;DHT22;7588;62.368;25.902;2023-04-03T11:41:29;8.50;52.70
14985;DHT22;7588;62.368;25.902;2023-04-03T11:44:13;8.70;50.30
14985;DHT22;7588;62.368;25.902;2023-04-03T11:46:57;8.40;46.80
14985;DHT22;7588;62.368;25.902;2023-04-03T11:49:58;8.20;51.50
14985;DHT22;7588;62.368;25.902;2023-04-03T12:29:55;8.80;48.00
14985;DHT22;7588;62.368;25.902;2023-04-03T12:35:30;8.80;45.80
14985;DHT22;7588;62.368;25.902;2023-04-03T12:46:15;8.40;50.00
14985;DHT22;7588;62.368;25.902;2023-04-03T12:51:21;8.40;50.60
14985;DHT22;7588;62.368;25.902;2023-04-03T12:53:50;8.60;49.20
14985;DHT22;7588;62.368;25.902;2023-04-03T12:56:24;8.60;47.10
14985;DHT22;7588;62.368;25.902;2023-04-03T12:58:52;7.40;49.50
14985;DHT22;7588;62.368;25.902;2023-04-03T13:01:25;7.30;53.80
14985;DHT22;7588;62.368;25.902;2023-04-03T13:03:56;7.90;50.40
14985;DHT22;7588;62.368;25.902;2023-04-03T13:08:57;8.00;51.20
14985;DHT22;7588;62.368;25.902;2023-04-03T13:11:24;8.00;50.60
14985;DHT22;7588;62.368;25.902;2023-04-03T13:14:15;8.20;49.50
14985;DHT22;7588;62.368;25.902;2023-04-03T13:16:41;8.00;48.40
14985;DHT22;7588;62.368;25.902;2023-04-03T13:19:16;7.60;48.20
14985;DHT22;7588;62.368;25.902;2023-04-03T13:21:42;7.40;49.50
14985;DHT22;7588;62.368;25.902;2023-04-03T13:24:10;7.10;50.00
14985;DHT22;7588;62.368;25.902;2023-04-03T13:26:36;6.40;49.90
14985;DHT22;7588;62.368;25.902;2023-04-03T13:29:07;6.00;50.90
14985;DHT22;7588;62.368;25.902;2023-04-03T13:31:36;5.50;51.40
14985;DHT22;7588;62.368;25.902;2023-04-03T13:36:41;4.60;54.50
14985;DHT22;7588;62.368;25.902;2023-04-03T13:41:52;3.70;57.60
14985;DHT22;7588;62.368;25.902;2023-04-03T13:44:30;3.30;58.40
14985;DHT22;7588;62.368;25.902;2023-04-03T13:47:01;3.20;56.70
14985;DHT22;7588;62.368;25.902;2023-04-03T13:49:44;3.20;56.30
14985;DHT22;7588;62.368;25.902;2023-04-03T13:52:54;3.10;57.40
14985;DHT22;7588;62.368;25.902;2023-04-03T14:03:22;2.50;58.30
14985;DHT22;7588;62.368;25.902;2023-04-03T14:05:49;2.40;56.40
14985;DHT22;7588;62.368;25.902;2023-04-03T14:08:16;2.30;58.10
14985;DHT22;7588;62.368;25.902;2023-04-03T14:10:43;2.20;57.20
14985;DHT22;7588;62.368;25.902;2023-04-03T14:13:13;2.00;57.20
14985;DHT22;7588;62.368;25.902;2023-04-03T14:15:40;1.90;57.80
14985;DHT22;7588;62.368;25.902;2023-04-03T14:18:06;1.80;56.00
14985;DHT22;7588;62.368;25.902;2023-04-03T14:20:32;1.70;58.00
14985;DHT22;7588;62.368;25.902;2023-04-03T14:22:57;1.70;59.00
14985;DHT22;7588;62.368;25.902;2023-04-03T14:25:24;1.60;60.40
14985;DHT22;7588;62.368;25.902;2023-04-03T14:27:53;1.60;58.20
14985;DHT22;7588;62.368;25.902;2023-04-03T14:30:21;1.60;58.30
14985;DHT22;7588;62.368;25.902;2023-04-03T14:32:48;1.60;57.90
14985;DHT22;7588;62.368;25.902;2023-04-03T14:35:15;1.40;59.10
14985;DHT22;7588;62.368;25.902;2023-04-03T14:37:42;1.40;57.30
14985;DHT22;7588;62.368;25.902;2023-04-03T14:40:11;1.30;59.00
14985;DHT22;7588;62.368;25.902;2023-04-03T14:42:38;1.20;58.90
14985;DHT22;7588;62.368;25.902;2023-04-03T14:45:07;1.50;58.90
14985;DHT22;7588;62.368;25.902;2023-04-03T14:47:55;1.70;59.10
14985;DHT22;7588;62.368;25.902;2023-04-03T14:50:26;1.90;57.80
14985;DHT22;7588;62.368;25.902;2023-04-03T14:52:55;1.90;57.30
14985;DHT22;7588;62.368;25.902;2023-04-03T14:55:23;1.80;58.10
14985;DHT22;7588;62.368;25.902;2023-04-03T14:57:49;1.60;58.00
14985;DHT22;7588;62.368;25.902;2023-04-03T15:00:20;1.40;59.50
14985;DHT22;7588;62.368;25.902;2023-04-03T15:02:46;1.40;60.70
14985;DHT22;7588;62.368;25.902;2023-04-03T15:05:13;1.30;59.70
14985;DHT22;7588;62.368;25.902;2023-04-03T15:07:43;1.30;58.60
14985;DHT22;7588;62.368;25.902;2023-04-03T15:10:25;1.20;57.30
14985;DHT22;7588;62.368;25.902;2023-04-03T15:12:51;1.20;58.60
14985;DHT22;7588;62.368;25.902;2023-04-03T15:15:19;1.10;61.10
14985;DHT22;7588;62.368;25.902;2023-04-03T15:17:48;1.10;59.40
14985;DHT22;7588;62.368;25.902;2023-04-03T15:20:17;1.10;59.50
14985;DHT22;7588;62.368;25.902;2023-04-03T15:22:43;1.10;59.30
14985;DHT22;7588;62.368;25.902;2023-04-03T15:25:09;1.10;58.80
14985;DHT22;7588;62.368;25.902;2023-04-03T15:27:35;1.10;59.50
14985;DHT22;7588;62.368;25.902;2023-04-03T15:30:03;1.10;58.80
14985;DHT22;7588;62.368;25.902;2023-04-03T15:32:29;1.20;59.50
14985;DHT22;7588;62.368;25.902;2023-04-03T15:34:55;1.20;58.50
14985;DHT22;7588;62.368;25.902;2023-04-03T15:37:20;1.20;58.20
14985;DHT22;7588;62.368;25.902;2023-04-03T15:39:46;1.20;58.60
14985;DHT22;7588;62.368;25.902;2023-04-03T15:42:12;1.50;60.40
14985;DHT22;7588;62.368;25.902;2023-04-03T15:44:38;1.60;58.60
14985;DHT22;7588;62.368;25.902;2023-04-03T15:47:04;1.70;57.90
14985;DHT22;7588;62.368;25.902;2023-04-03T15:49:32;1.30;60.20
14985;DHT22;7588;62.368;25.902;2023-04-03T15:51:58;1.10;59.20
14985;DHT22;7588;62.368;25.902;2023-04-03T15:54:23;0.90;60.60
14985;DHT22;7588;62.368;25.902;2023-04-03T15:56:50;0.60;62.00
14985;DHT22;7588;62.368;25.902;2023-04-03T15:59:15;0.50;61.40
14985;DHT22;7588;62.368;25.902;2023-04-03T16:01:42;0.50;60.20
14985;DHT22;7588;62.368;25.902;2023-04-03T16:04:08;0.40;60.10
14985;DHT22;7588;62.368;25.902;2023-04-03T16:06:36;0.10;64.10
14985;DHT22;7588;62.368;25.902;2023-04-03T16:09:02;-0.10;63.00
14985;DHT22;7588;62.368;25.902;2023-04-03T16:11:29;-0.20;64.00
14985;DHT22;7588;62.368;25.902;2023-04-03T16:13:55;-0.40;63.40
14985;DHT22;7588;62.368;25.902;2023-04-03T16:16:22;-0.50;64.90
14985;DHT22;7588;62.368;25.902;2023-04-03T16:18:48;-0.60;64.80
14985;DHT22;7588;62.368;25.902;2023-04-03T16:21:16;-0.80;65.80
14985;DHT22;7588;62.368;25.902;2023-04-03T16:23:42;-1.00;68.20
14985;DHT22;7588;62.368;25.902;2023-04-03T16:26:08;-1.10;67.80
14985;DHT22;7588;62.368;25.902;2023-04-03T16:28:34;-1.20;69.10
14985;DHT22;7588;62.368;25.902;2023-04-03T16:31:01;-1.30;69.70
14985;DHT22;7588;62.368;25.902;2023-04-03T16:33:27;-1.40;69.50
14985;DHT22;7588;62.368;25.902;2023-04-03T16:35:53;-1.50;68.70
14985;DHT22;7588;62.368;25.902;2023-04-03T16:38:19;-1.60;72.40
14985;DHT22;7588;62.368;25.902;2023-04-03T16:40:46;-1.80;71.80
14985;DHT22;7588;62.368;25.902;2023-04-03T16:43:11;-1.90;72.40
14985;DHT22;7588;62.368;25.902;2023-04-03T16:45:37;-1.90;73.70
14985;DHT22;7588;62.368;25.902;2023-04-03T16:48:03;-2.10;73.20
14985;DHT22;7588;62.368;25.902;2023-04-03T16:50:29;-2.20;76.50
14985;DHT22;7588;62.368;25.902;2023-04-03T16:52:55;-2.30;77.70
14985;DHT22;7588;62.368;25.902;2023-04-03T16:55:21;-2.40;78.40
14985;DHT22;7588;62.368;25.902;2023-04-03T16:57:46;-2.50;78.80
14985;DHT22;7588;62.368;25.902;2023-04-03T17:00:13;-2.50;80.70
14985;DHT22;7588;62.368;25.902;2023-04-03T17:02:40;-2.70;86.90
14985;DHT22;7588;62.368;25.902;2023-04-03T17:05:06;-2.80;87.30
14985;DHT22;7588;62.368;25.902;2023-04-03T17:07:32;-2.90;91.70
14985;DHT22;7588;62.368;25.902;2023-04-03T17:09:58;-3.00;91.90
14985;DHT22;7588;62.368;25.902;2023-04-03T17:12:24;-3.10;92.90
14985;DHT22;7588;62.368;25.902;2023-04-03T17:14:50;-3.20;95.10
14985;DHT22;7588;62.368;25.902;2023-04-03T17:17:19;-3.30;95.00
14985;DHT22;7588;62.368;25.902;2023-04-03T17:19:46;-3.40;96.30
14985;DHT22;7588;62.368;25.902;2023-04-03T17:22:12;-3.50;97.80
14985;DHT22;7588;62.368;25.902;2023-04-03T17:24:38;-3.50;96.80
14985;DHT22;7588;62.368;25.902;2023-04-03T17:27:04;-3.70;99.90
14985;DHT22;7588;62.368;25.902;2023-04-03T17:29:30;-3.80;99.90
14985;DHT22;7588;62.368;25.902;2023-04-03T17:31:55;-3.80;99.90
14985;DHT22;7588;62.368;25.902;2023-04-03T17:34:22;-3.90;99.90
14985;DHT22;7588;62.368;25.902;2023-04-03T17:36:48;-4.00;99.90
14985;DHT22;7588;62.368;25.902;2023-04-03T17:39:13;-4.10;99.90
14985;DHT22;7588;62.368;25.902;2023-04-03T17:41:39;-4.20;99.90
14985;DHT22;7588;62.368;25.902;2023-04-03T17:44:05;-4.30;99.90